Time;durP1;ratioP1;P1;durP2;ratioP2;P2;SDS_P1;SDS_P2;PMS_P1;PMS_P2;Temp;Humidity;BMP_temperature;BMP_pressure;BME280_temperature;BME280_humidity;BME280_pressure;Samples;Min_cycle;Max_cycle;Signal;HPM_P1;HPM_P2
2024/03/18 00:02:23;;;;;;;13.63;8.82;;;;;;;;;;5024865;28;20095;-47
2024/03/18 00:04:50;;;;;;;13.80;9.20;;;;;;;;;;5026226;28;20033;-49
2024/03/18 00:07:16;;;;;;;14.07;9.55;;;;;;;;;;5025174;28;20144;-52
2024/03/18 00:09:42;;;;;;;13.65;8.90;;;;;;;;;;5026710;28;20395;-52
2024/03/18 00:12:08;;;;;;;13.63;8.90;;;;;;;;;;5026254;28;20026;-53
2024/03/18 00:14:34;;;;;;;13.63;8.75;;;;;;;;;;5026188;28;20033;-49
2024/03/18 00:17:00;;;;;;;13.55;8.70;;;;;;;;;;5026328;28;20021;-52
2024/03/18 00:19:26;;;;;;;13.57;8.60;;;;;;;;;;5026672;28;20107;-54
2024/03/18 00:21:52;;;;;;;13.50;8.60;;;;;;;;;;5026422;28;20048;-50
2024/03/18 00:24:19;;;;;;;13.60;8.80;;;;;;;;;;5026313;28;20029;-55
2024/03/18 00:26:46;;;;;;;14.30;9.95;;;;;;;;;;5026565;28;20026;-49
2024/03/18 00:29:12;;;;;;;13.60;8.70;;;;;;;;;;5024605;28;20052;-52
2024/03/18 00:31:38;;;;;;;13.57;8.57;;;;;;;;;;5026252;28;20049;-47
2024/03/18 00:34:04;;;;;;;13.60;8.75;;;;;;;;;;5025790;28;20025;-50
2024/03/18 00:36:30;;;;;;;13.60;8.80;;;;;;;;;;5026395;28;20029;-52
2024/03/18 00:38:56;;;;;;;13.70;8.98;;;;;;;;;;5026441;28;20550;-51
2024/03/18 00:44:07;;;;;;;13.55;8.63;;;;;;;;;;5027570;28;20033;-48
2024/03/18 00:46:33;;;;;;;13.60;8.80;;;;;;;;;;5029686;28;20419;-49
2024/03/18 00:49:01;;;;;;;13.60;8.65;;;;;;;;;;5055734;22;20030;-54
2024/03/18 00:51:27;;;;;;;13.45;8.43;;;;;;;;;;5050962;28;20031;-53
2024/03/18 00:53:53;;;;;;;13.52;8.35;;;;;;;;;;5051249;28;20109;-58
2024/03/18 00:56:19;;;;;;;13.38;8.15;;;;;;;;;;5050484;28;20056;-52
2024/03/18 00:58:45;;;;;;;13.32;8.05;;;;;;;;;;5051616;28;20024;-55
2024/03/18 01:01:11;;;;;;;13.48;8.30;;;;;;;;;;5031547;28;20387;-52
2024/03/18 01:03:37;;;;;;;13.52;8.43;;;;;;;;;;5031179;28;20030;-52
2024/03/18 01:06:04;;;;;;;12.60;7.32;;;;;;;;;;5031971;28;20033;-57
2024/03/18 01:08:30;;;;;;;12.55;7.30;;;;;;;;;;5030605;28;20054;-56
2024/03/18 01:10:56;;;;;;;12.70;7.40;;;;;;;;;;5031813;28;20094;-51
2024/03/18 01:13:31;;;;;;;12.52;7.28;;;;;;;;;;5031317;28;20018;-54
2024/03/18 01:15:57;;;;;;;13.10;7.60;;;;;;;;;;5030567;28;20079;-56
2024/03/18 01:18:23;;;;;;;12.93;7.60;;;;;;;;;;5031830;28;20059;-51
2024/03/18 01:20:49;;;;;;;13.15;7.60;;;;;;;;;;5031668;28;20032;-51
2024/03/18 01:23:15;;;;;;;12.63;7.40;;;;;;;;;;5029844;28;20112;-55
2024/03/18 01:25:42;;;;;;;13.07;7.57;;;;;;;;;;5031777;28;20037;-55
2024/03/18 01:28:08;;;;;;;13.10;7.63;;;;;;;;;;5031611;28;20547;-52
2024/03/18 01:30:34;;;;;;;13.13;7.63;;;;;;;;;;5031693;28;20032;-55
2024/03/18 01:33:00;;;;;;;13.25;7.80;;;;;;;;;;5029811;28;20371;-55
2024/03/18 01:35:26;;;;;;;13.13;7.68;;;;;;;;;;5031678;28;20025;-54
2024/03/18 01:37:52;;;;;;;13.13;7.60;;;;;;;;;;5031673;28;20030;-54
2024/03/18 01:40:19;;;;;;;13.20;7.70;;;;;;;;;;5031505;28;20029;-56
2024/03/18 01:42:45;;;;;;;13.10;7.70;;;;;;;;;;5030551;28;20124;-52
2024/03/18 01:45:11;;;;;;;13.20;7.70;;;;;;;;;;5031468;28;20021;-54
2024/03/18 01:47:39;;;;;;;13.15;7.70;;;;;;;;;;5031401;28;20028;-54
2024/03/18 01:50:09;;;;;;;13.18;7.70;;;;;;;;;;5031120;28;20061;-54
2024/03/18 01:52:35;;;;;;;13.10;7.70;;;;;;;;;;5030443;28;20036;-58
2024/03/18 01:55:01;;;;;;;13.32;7.90;;;;;;;;;;5031166;28;20030;-53
2024/03/18 01:57:30;;;;;;;13.02;7.60;;;;;;;;;;5030976;28;20045;-56
2024/03/18 01:59:56;;;;;;;13.00;7.60;;;;;;;;;;5029413;28;20041;-52
2024/03/18 02:02:23;;;;;;;13.13;7.80;;;;;;;;;;5030364;28;20034;-56
2024/03/18 02:04:50;;;;;;;13.10;7.60;;;;;;;;;;5030966;28;20033;-54
2024/03/18 02:07:21;;;;;;;13.07;7.63;;;;;;;;;;5030806;28;20071;-56
2024/03/18 02:09:47;;;;;;;12.88;7.50;;;;;;;;;;5030823;28;20021;-54
2024/03/18 02:12:13;;;;;;;13.02;7.65;;;;;;;;;;5030469;28;20075;-52
2024/03/18 02:14:39;;;;;;;13.13;7.65;;;;;;;;;;5030386;28;20025;-54
2024/03/18 02:17:05;;;;;;;13.23;7.70;;;;;;;;;;5029471;28;20032;-55
2024/03/18 02:19:31;;;;;;;13.18;7.90;;;;;;;;;;5030654;28;20491;-51
2024/03/18 02:21:58;;;;;;;13.02;7.60;;;;;;;;;;5030421;28;20072;-56
2024/03/18 02:24:24;;;;;;;12.93;7.57;;;;;;;;;;5030226;28;20409;-56
2024/03/18 02:26:50;;;;;;;13.05;7.57;;;;;;;;;;5030847;28;20532;-54
2024/03/18 02:29:16;;;;;;;13.05;7.55;;;;;;;;;;5030465;28;20029;-55
2024/03/18 02:31:42;;;;;;;13.10;7.60;;;;;;;;;;5030282;28;20018;-55
2024/03/18 02:34:08;;;;;;;13.30;8.00;;;;;;;;;;5029950;28;20036;-58
2024/03/18 02:36:34;;;;;;;13.32;7.90;;;;;;;;;;5030578;28;20112;-56
2024/03/18 02:39:00;;;;;;;13.13;7.70;;;;;;;;;;5030359;28;20025;-56
2024/03/18 02:41:26;;;;;;;13.27;7.80;;;;;;;;;;5030077;28;20108;-55
2024/03/18 02:43:53;;;;;;;13.10;7.60;;;;;;;;;;5029985;28;20033;-51
2024/03/18 02:46:19;;;;;;;13.20;7.78;;;;;;;;;;5030322;28;20443;-54
2024/03/18 02:48:45;;;;;;;13.20;7.72;;;;;;;;;;5030123;28;20471;-55
2024/03/18 02:51:11;;;;;;;13.30;7.72;;;;;;;;;;5028690;28;20032;-55
2024/03/18 02:53:37;;;;;;;12.95;7.50;;;;;;;;;;5028259;28;20448;-56
2024/03/18 02:56:03;;;;;;;13.10;7.70;;;;;;;;;;5030037;28;20041;-53
2024/03/18 02:58:29;;;;;;;13.20;7.70;;;;;;;;;;5029898;28;20041;-54
2024/03/18 03:00:55;;;;;;;13.00;7.53;;;;;;;;;;5029009;28;20025;-54
2024/03/18 03:03:21;;;;;;;12.43;7.20;;;;;;;;;;5029230;28;20647;-56
2024/03/18 03:05:47;;;;;;;12.85;7.53;;;;;;;;;;5029889;28;20033;-54
2024/03/18 03:08:13;;;;;;;12.88;7.47;;;;;;;;;;5028407;28;20392;-53
2024/03/18 03:10:39;;;;;;;12.60;7.30;;;;;;;;;;5028892;28;20025;-55
2024/03/18 03:13:05;;;;;;;12.40;7.20;;;;;;;;;;5028994;28;20026;-51
2024/03/18 03:15:34;;;;;;;12.50;7.20;;;;;;;;;;5029440;28;20025;-53
2024/03/18 03:18:00;;;;;;;12.32;7.15;;;;;;;;;;5029419;28;20121;-53
2024/03/18 03:20:30;;;;;;;12.60;7.30;;;;;;;;;;5029492;28;20045;-52
2024/03/18 03:22:57;;;;;;;12.75;7.40;;;;;;;;;;5028730;28;20049;-52
2024/03/18 03:25:23;;;;;;;12.85;7.45;;;;;;;;;;5029389;28;20088;-54
2024/03/18 03:27:49;;;;;;;12.50;7.30;;;;;;;;;;5029206;28;20021;-57
2024/03/18 03:30:15;;;;;;;12.40;7.18;;;;;;;;;;5027814;28;20389;-51
2024/03/18 03:32:42;;;;;;;12.40;7.28;;;;;;;;;;5028619;28;20100;-53
2024/03/18 03:35:08;;;;;;;12.15;7.05;;;;;;;;;;5029234;28;20697;-56
2024/03/18 03:37:35;;;;;;;12.43;7.22;;;;;;;;;;5028231;28;20655;-53
2024/03/18 03:40:02;;;;;;;12.57;7.28;;;;;;;;;;5029080;28;20049;-53
2024/03/18 03:42:28;;;;;;;12.85;7.47;;;;;;;;;;5028392;28;20033;-55
2024/03/18 03:44:54;;;;;;;12.65;7.30;;;;;;;;;;5029091;28;20105;-56
2024/03/18 03:47:20;;;;;;;12.80;7.50;;;;;;;;;;5029033;28;20563;-56
2024/03/18 03:49:46;;;;;;;12.90;7.50;;;;;;;;;;5028915;28;20171;-51
2024/03/18 03:52:13;;;;;;;13.00;7.60;;;;;;;;;;5028630;28;20046;-54
2024/03/18 03:54:40;;;;;;;12.45;7.25;;;;;;;;;;5028658;28;20088;-55
2024/03/18 03:57:06;;;;;;;12.80;7.45;;;;;;;;;;5029275;28;20483;-53
2024/03/18 03:59:32;;;;;;;12.70;7.38;;;;;;;;;;5029162;28;20036;-53
2024/03/18 04:01:59;;;;;;;12.38;7.20;;;;;;;;;;5028844;28;20029;-53
2024/03/18 04:04:25;;;;;;;12.40;7.25;;;;;;;;;;5027266;28;20099;-54
2024/03/18 04:06:51;;;;;;;12.50;7.20;;;;;;;;;;5029029;28;20041;-56
2024/03/18 04:09:17;;;;;;;12.65;7.30;;;;;;;;;;5028579;28;20483;-53
2024/03/18 04:11:43;;;;;;;12.30;7.18;;;;;;;;;;5028458;28;20029;-56
2024/03/18 04:14:10;;;;;;;11.90;7.00;;;;;;;;;;5028322;28;20029;-52
2024/03/18 04:16:36;;;;;;;12.38;7.30;;;;;;;;;;5028768;28;20075;-56
2024/03/18 04:19:02;;;;;;;12.63;7.32;;;;;;;;;;5028648;28;20507;-56
2024/03/18 04:21:29;;;;;;;12.43;7.20;;;;;;;;;;5028499;28;20021;-55
2024/03/18 04:23:55;;;;;;;12.23;7.13;;;;;;;;;;5032067;28;20096;-55
2024/03/18 04:26:23;;;;;;;12.57;7.30;;;;;;;;;;5032745;28;20053;-53
2024/03/18 04:28:49;;;;;;;12.43;7.30;;;;;;;;;;5032496;28;20021;-53
2024/03/18 04:31:15;;;;;;;12.10;7.07;;;;;;;;;;5032236;28;20464;-56
2024/03/18 04:33:41;;;;;;;12.20;7.90;;;;;;;;;;5014165;28;20021;-54
2024/03/18 04:36:09;;;;;;;12.15;7.07;;;;;;;;;;5032621;28;20053;-54
2024/03/18 04:38:35;;;;;;;12.27;7.10;;;;;;;;;;5032617;28;20018;-55
2024/03/18 04:41:01;;;;;;;11.77;6.90;;;;;;;;;;5032028;28;20068;-54
2024/03/18 04:43:27;;;;;;;12.30;7.13;;;;;;;;;;5031684;28;20079;-56
2024/03/18 04:45:53;;;;;;;12.05;7.03;;;;;;;;;;5032322;28;20022;-55
2024/03/18 04:48:19;;;;;;;11.93;6.95;;;;;;;;;;5032266;28;20025;-50
2024/03/18 04:50:46;;;;;;;12.05;7.00;;;;;;;;;;5032163;28;20041;-55
2024/03/18 04:53:12;;;;;;;11.88;6.88;;;;;;;;;;5013756;28;20026;-52
2024/03/18 04:55:38;;;;;;;11.90;6.90;;;;;;;;;;5014426;28;20022;-54
2024/03/18 04:58:04;;;;;;;12.43;7.28;;;;;;;;;;5032068;28;20549;-51
2024/03/18 05:00:30;;;;;;;12.40;7.20;;;;;;;;;;5032065;28;20029;-53
2024/03/18 05:02:56;;;;;;;12.50;7.30;;;;;;;;;;5031276;28;20040;-54
2024/03/18 05:05:22;;;;;;;12.30;7.20;;;;;;;;;;5032106;28;20025;-54
2024/03/18 05:07:48;;;;;;;12.38;7.22;;;;;;;;;;5032058;28;20116;-53
2024/03/18 05:10:21;;;;;;;12.40;7.20;;;;;;;;;;5032034;28;20066;-53
2024/03/18 05:12:47;;;;;;;12.50;7.20;;;;;;;;;;5031424;28;20152;-56
2024/03/18 05:15:13;;;;;;;12.65;7.38;;;;;;;;;;5032042;28;20228;-55
2024/03/18 05:17:39;;;;;;;12.63;7.32;;;;;;;;;;5031995;28;20030;-54
2024/03/18 05:20:11;;;;;;;12.60;7.30;;;;;;;;;;5031781;28;20030;-54
2024/03/18 05:22:37;;;;;;;13.07;7.70;;;;;;;;;;5031107;28;20018;-50
2024/03/18 05:25:06;;;;;;;13.00;7.57;;;;;;;;;;5031885;28;20021;-53
2024/03/18 05:27:32;;;;;;;12.68;7.45;;;;;;;;;;5031601;28;20041;-54
2024/03/18 05:30:00;;;;;;;12.80;7.50;;;;;;;;;;5031485;28;20022;-55
2024/03/18 05:32:26;;;;;;;13.18;7.65;;;;;;;;;;5030859;28;20025;-50
2024/03/18 05:34:52;;;;;;;13.02;7.60;;;;;;;;;;5030834;28;20018;-57
2024/03/18 05:37:18;;;;;;;13.25;7.75;;;;;;;;;;5014034;28;20116;-55
2024/03/18 05:39:45;;;;;;;13.10;7.70;;;;;;;;;;5031625;28;20108;-53
2024/03/18 05:42:11;;;;;;;12.68;7.35;;;;;;;;;;5031393;28;20021;-56
2024/03/18 05:44:37;;;;;;;12.40;7.30;;;;;;;;;;5031053;28;20125;-55
2024/03/18 05:47:03;;;;;;;12.93;7.57;;;;;;;;;;5031448;28;20028;-53
2024/03/18 05:49:29;;;;;;;12.95;7.57;;;;;;;;;;5030774;28;20061;-55
2024/03/18 05:51:56;;;;;;;12.65;7.40;;;;;;;;;;5030830;28;20068;-54
2024/03/18 05:54:22;;;;;;;12.20;7.10;;;;;;;;;;5030646;28;20105;-57
2024/03/18 05:56:48;;;;;;;12.40;7.22;;;;;;;;;;5031215;28;20100;-55
2024/03/18 05:59:14;;;;;;;12.10;7.10;;;;;;;;;;5013802;28;20080;-53
2024/03/18 06:01:41;;;;;;;12.02;7.03;;;;;;;;;;5031049;28;20025;-55
2024/03/18 06:04:08;;;;;;;12.13;7.07;;;;;;;;;;5030494;28;20033;-50
2024/03/18 06:06:34;;;;;;;11.88;6.93;;;;;;;;;;5013167;28;20055;-55
2024/03/18 06:09:01;;;;;;;11.77;6.90;;;;;;;;;;5030774;28;20172;-52
2024/03/18 06:11:27;;;;;;;12.50;7.30;;;;;;;;;;5025279;28;20699;-54
2024/03/18 06:13:53;;;;;;;12.15;7.07;;;;;;;;;;5028536;28;20399;-54
2024/03/18 06:16:19;;;;;;;12.10;7.05;;;;;;;;;;5030229;28;20021;-56
2024/03/18 06:18:46;;;;;;;11.95;7.30;;;;;;;;;;5030540;28;20532;-55
2024/03/18 06:21:16;;;;;;;11.70;6.88;;;;;;;;;;5012498;28;20072;-54
2024/03/18 06:23:54;;;;;;;11.70;6.82;;;;;;;;;;5010158;28;20074;-56
2024/03/18 06:26:21;;;;;;;12.05;7.00;;;;;;;;;;4994395;28;20029;-53
2024/03/18 06:28:47;;;;;;;11.90;6.95;;;;;;;;;;5019597;28;20076;-53
2024/03/18 06:31:13;;;;;;;12.45;7.20;;;;;;;;;;5030266;28;20061;-52
2024/03/18 06:33:39;;;;;;;12.50;7.30;;;;;;;;;;5012101;28;20028;-53
2024/03/18 06:36:09;;;;;;;12.55;7.35;;;;;;;;;;5030186;28;20096;-53
2024/03/18 06:38:36;;;;;;;13.23;7.85;;;;;;;;;;5030276;28;20503;-50
2024/03/18 06:41:02;;;;;;;12.68;7.38;;;;;;;;;;5012129;28;20044;-53
2024/03/18 06:43:28;;;;;;;12.60;7.30;;;;;;;;;;5029450;28;20025;-55
2024/03/18 06:45:54;;;;;;;12.80;7.53;;;;;;;;;;5019929;28;20022;-55
2024/03/18 06:48:20;;;;;;;12.75;7.40;;;;;;;;;;4992604;28;20073;-51
2024/03/18 06:50:46;;;;;;;12.95;7.57;;;;;;;;;;5069749;22;20067;-51
2024/03/18 06:53:12;;;;;;;13.00;7.60;;;;;;;;;;5061217;28;20024;-47
2024/03/18 06:55:43;;;;;;;13.20;7.82;;;;;;;;;;5082020;28;20032;-52
2024/03/18 06:58:10;;;;;;;13.00;7.60;;;;;;;;;;5081978;28;20028;-50
2024/03/18 07:00:36;;;;;;;13.30;7.95;;;;;;;;;;5084992;28;20074;-48
2024/03/18 07:03:02;;;;;;;13.30;8.10;;;;;;;;;;5091848;28;20029;-48
2024/03/18 07:05:28;;;;;;;13.40;8.13;;;;;;;;;;5091548;28;20023;-47
2024/03/18 07:07:54;;;;;;;13.35;8.10;;;;;;;;;;5072880;28;20071;-46
2024/03/18 07:10:20;;;;;;;13.27;7.90;;;;;;;;;;5091163;28;20062;-51
2024/03/18 07:12:46;;;;;;;12.98;7.60;;;;;;;;;;5079197;28;20074;-53
2024/03/18 07:15:13;;;;;;;12.75;7.53;;;;;;;;;;5070273;28;20398;-51
2024/03/18 07:17:40;;;;;;;13.13;7.75;;;;;;;;;;5052404;28;20093;-55
2024/03/18 07:20:07;;;;;;;13.40;8.40;;;;;;;;;;5070541;28;20502;-50
2024/03/18 07:22:33;;;;;;;14.50;8.40;;;;;;;;;;5069957;28;20560;-52
2024/03/18 07:24:59;;;;;;;13.13;7.72;;;;;;;;;;5070499;28;20113;-50
2024/03/18 07:27:25;;;;;;;13.18;7.82;;;;;;;;;;5070160;28;20028;-53
2024/03/18 07:29:55;;;;;;;13.20;7.70;;;;;;;;;;5070244;28;20024;-53
2024/03/18 07:32:21;;;;;;;13.27;7.75;;;;;;;;;;5069625;28;20486;-51
2024/03/18 07:34:48;;;;;;;12.70;7.40;;;;;;;;;;5052378;28;20024;-51
2024/03/18 07:37:14;;;;;;;13.52;8.32;;;;;;;;;;5070176;28;20029;-55
2024/03/18 07:39:40;;;;;;;13.27;7.82;;;;;;;;;;5070028;28;20032;-54
2024/03/18 07:42:06;;;;;;;13.18;7.70;;;;;;;;;;5070042;28;20024;-51
2024/03/18 07:44:32;;;;;;;13.38;8.30;;;;;;;;;;5069888;28;20021;-55
2024/03/18 07:46:58;;;;;;;12.55;7.30;;;;;;;;;;5081359;28;20028;-51
2024/03/18 07:49:24;;;;;;;12.90;7.57;;;;;;;;;;5090436;28;20543;-50
2024/03/18 07:51:50;;;;;;;12.73;7.43;;;;;;;;;;5089869;28;20020;-48
2024/03/18 07:54:16;;;;;;;12.75;7.45;;;;;;;;;;5089840;28;20035;-52
2024/03/18 07:56:42;;;;;;;13.10;7.85;;;;;;;;;;5089608;28;20019;-50
2024/03/18 07:59:09;;;;;;;13.10;7.60;;;;;;;;;;5090046;28;20103;-51
2024/03/18 08:01:35;;;;;;;13.00;7.60;;;;;;;;;;5089773;28;20077;-52
2024/03/18 08:04:01;;;;;;;13.07;7.63;;;;;;;;;;5089301;28;20028;-48
2024/03/18 08:06:27;;;;;;;13.27;7.88;;;;;;;;;;5071623;28;20020;-53
2024/03/18 08:08:54;;;;;;;13.13;7.72;;;;;;;;;;5089809;28;20043;-45
2024/03/18 08:11:21;;;;;;;12.60;7.43;;;;;;;;;;5089545;28;20031;-47
2024/03/18 08:13:47;;;;;;;13.32;7.82;;;;;;;;;;5089474;28;20024;-53
2024/03/18 08:16:12;;;;;;;13.18;7.78;;;;;;;;;;5089949;28;20658;-51
2024/03/18 08:18:38;;;;;;;13.20;7.70;;;;;;;;;;5071711;28;20032;-52
2024/03/18 08:21:05;;;;;;;13.35;7.90;;;;;;;;;;5089604;28;20024;-53
2024/03/18 08:23:31;;;;;;;13.40;7.97;;;;;;;;;;5088912;28;20547;-50
2024/03/18 08:25:57;;;;;;;13.30;8.07;;;;;;;;;;5089600;28;20036;-52
2024/03/18 08:28:22;;;;;;;12.40;7.28;;;;;;;;;;5089392;28;20028;-46
2024/03/18 08:30:48;;;;;;;13.10;7.70;;;;;;;;;;5089220;28;20024;-51
2024/03/18 08:33:14;;;;;;;12.90;7.50;;;;;;;;;;5088845;28;20059;-50
2024/03/18 08:35:40;;;;;;;12.70;7.40;;;;;;;;;;5089737;28;20091;-49
2024/03/18 08:38:07;;;;;;;12.93;7.45;;;;;;;;;;5089399;28;20454;-51
2024/03/18 08:40:33;;;;;;;12.35;7.20;;;;;;;;;;5071442;28;20024;-52
2024/03/18 08:42:59;;;;;;;12.90;7.50;;;;;;;;;;5088844;28;20078;-59
2024/03/18 08:45:25;;;;;;;12.98;7.65;;;;;;;;;;5089520;28;20500;-49
2024/03/18 08:47:51;;;;;;;11.88;6.97;;;;;;;;;;5088803;28;20035;-54
2024/03/18 08:50:17;;;;;;;12.40;7.20;;;;;;;;;;5089434;28;20028;-54
2024/03/18 08:52:43;;;;;;;12.60;7.30;;;;;;;;;;5088806;28;20112;-56
2024/03/18 08:55:10;;;;;;;12.90;7.55;;;;;;;;;;5089625;28;20084;-50
2024/03/18 08:57:36;;;;;;;12.95;7.55;;;;;;;;;;5089561;28;20028;-54
2024/03/18 09:00:05;;;;;;;12.63;7.50;;;;;;;;;;5089329;28;20470;-52
2024/03/18 09:02:31;;;;;;;12.07;7.10;;;;;;;;;;5087535;28;20052;-49
2024/03/18 09:04:57;;;;;;;11.82;6.90;;;;;;;;;;5071539;28;20105;-50
2024/03/18 09:07:23;;;;;;;12.02;7.00;;;;;;;;;;5089306;28;20644;-55
2024/03/18 09:09:49;;;;;;;12.10;7.10;;;;;;;;;;5072859;28;20428;-52
2024/03/18 09:12:15;;;;;;;12.77;7.40;;;;;;;;;;5092823;28;20031;-52
2024/03/18 09:14:41;;;;;;;12.68;7.40;;;;;;;;;;5092466;28;20441;-52
2024/03/18 09:17:07;;;;;;;12.70;7.40;;;;;;;;;;5074800;28;20027;-52
2024/03/18 09:19:39;;;;;;;12.48;7.25;;;;;;;;;;5093035;28;20498;-51
2024/03/18 09:22:08;;;;;;;12.80;7.47;;;;;;;;;;5092772;28;20085;-53
2024/03/18 09:24:34;;;;;;;12.60;7.38;;;;;;;;;;5092549;28;20028;-53
2024/03/18 09:27:02;;;;;;;13.18;7.85;;;;;;;;;;5092866;28;20478;-55
2024/03/18 09:29:28;;;;;;;13.13;7.72;;;;;;;;;;5092570;28;20035;-53
2024/03/18 09:31:54;;;;;;;13.10;7.95;;;;;;;;;;5092583;28;20046;-49
2024/03/18 09:34:21;;;;;;;12.55;7.28;;;;;;;;;;5092479;28;20062;-53
2024/03/18 09:36:47;;;;;;;12.90;7.50;;;;;;;;;;5092527;28;20027;-54
2024/03/18 09:39:13;;;;;;;13.13;7.70;;;;;;;;;;5092481;28;20055;-51
2024/03/18 09:41:46;;;;;;;12.75;7.40;;;;;;;;;;5074052;28;20035;-50
2024/03/18 09:44:13;;;;;;;13.38;8.00;;;;;;;;;;5092200;28;20427;-56
2024/03/18 09:46:39;;;;;;;13.10;7.63;;;;;;;;;;5092584;28;20036;-54
2024/03/18 09:49:12;;;;;;;12.93;7.60;;;;;;;;;;5092140;28;20084;-52
2024/03/18 09:51:39;;;;;;;12.57;7.30;;;;;;;;;;5092120;28;20039;-52
2024/03/18 09:54:06;;;;;;;13.45;8.23;;;;;;;;;;5091692;28;20028;-54
2024/03/18 09:56:34;;;;;;;13.38;8.00;;;;;;;;;;5092089;28;20380;-52
2024/03/18 09:59:00;;;;;;;13.35;8.00;;;;;;;;;;5092179;28;20173;-52
2024/03/18 10:01:26;;;;;;;13.32;7.88;;;;;;;;;;5092070;28;20173;-55
2024/03/18 10:03:52;;;;;;;13.23;7.80;;;;;;;;;;5073607;28;20031;-54
2024/03/18 10:06:18;;;;;;;13.50;8.30;;;;;;;;;;5092366;28;20108;-54
2024/03/18 10:08:44;;;;;;;13.43;8.10;;;;;;;;;;5092044;28;20392;-51
2024/03/18 10:11:15;;;;;;;13.50;8.20;;;;;;;;;;5091996;28;20024;-54
2024/03/18 10:13:41;;;;;;;13.43;8.05;;;;;;;;;;5091590;28;20367;-54
2024/03/18 10:16:09;;;;;;;13.38;8.07;;;;;;;;;;5092161;28;20093;-54
2024/03/18 10:18:35;;;;;;;;;;;;;;;;;;5092521;28;20499;-50
2024/03/18 10:21:02;;;;;;;13.30;7.90;;;;;;;;;;5091458;28;19904;-49
2024/03/18 10:23:28;;;;;;;13.25;7.78;;;;;;;;;;5091263;28;20039;-53
2024/03/18 10:25:55;;;;;;;13.38;8.07;;;;;;;;;;5091807;28;20095;-54
2024/03/18 10:28:21;;;;;;;13.30;7.90;;;;;;;;;;5091976;28;20028;-53
2024/03/18 10:30:47;;;;;;;13.20;7.70;;;;;;;;;;5091961;28;20020;-56
2024/03/18 10:33:16;;;;;;;13.35;8.00;;;;;;;;;;5091431;28;20535;-55
2024/03/18 10:35:43;;;;;;;13.45;8.20;;;;;;;;;;5092215;28;20533;-54
2024/03/18 10:38:11;;;;;;;13.30;7.80;;;;;;;;;;5092167;28;20036;-56
2024/03/18 10:40:38;;;;;;;13.10;7.70;;;;;;;;;;5087678;28;20020;-55
2024/03/18 10:43:08;;;;;;;13.30;7.90;;;;;;;;;;5069646;28;20039;-56
2024/03/18 10:45:38;;;;;;;13.43;8.20;;;;;;;;;;5070012;28;20047;-54
2024/03/18 10:48:05;;;;;;;12.85;7.50;;;;;;;;;;5071157;28;20632;-55
2024/03/18 10:50:32;;;;;;;12.95;7.60;;;;;;;;;;5070433;28;20122;-53
2024/03/18 10:52:58;;;;;;;13.27;7.80;;;;;;;;;;5069326;28;20060;-55
2024/03/18 10:55:26;;;;;;;13.20;7.72;;;;;;;;;;5070768;28;20104;-55
2024/03/18 10:57:53;;;;;;;13.10;7.60;;;;;;;;;;5070876;28;20025;-55
2024/03/18 11:00:19;;;;;;;13.30;8.20;;;;;;;;;;5070618;28;20151;-52
2024/03/18 11:02:58;;;;;;;13.30;7.90;;;;;;;;;;5070165;28;20028;-54
2024/03/18 11:05:27;;;;;;;13.32;7.93;;;;;;;;;;5070871;28;20033;-56
2024/03/18 11:07:54;;;;;;;13.15;7.75;;;;;;;;;;5070869;28;20043;-53
2024/03/18 11:10:21;;;;;;;12.93;7.50;;;;;;;;;;5070834;28;20091;-57
2024/03/18 11:12:47;;;;;;;13.00;7.57;;;;;;;;;;5069724;28;20028;-54
2024/03/18 11:15:14;;;;;;;12.60;7.30;;;;;;;;;;5070800;28;20091;-56
2024/03/18 11:17:46;;;;;;;12.98;7.57;;;;;;;;;;5070544;28;20028;-57
2024/03/18 11:20:21;;;;;;;12.35;7.20;;;;;;;;;;5070617;28;20021;-53
2024/03/18 11:23:01;;;;;;;12.57;7.35;;;;;;;;;;5051537;28;20029;-50
2024/03/18 11:25:28;;;;;;;13.35;7.82;;;;;;;;;;5069917;28;20031;-53
2024/03/18 11:27:55;;;;;;;13.45;8.30;;;;;;;;;;5069896;28;20032;-52
2024/03/18 11:30:28;;;;;;;13.55;8.45;;;;;;;;;;5051653;28;20021;-56
2024/03/18 11:32:55;;;;;;;13.70;8.80;;;;;;;;;;5068362;28;20078;-52
2024/03/18 11:35:21;;;;;;;13.70;9.00;;;;;;;;;;5069364;28;20024;-56
2024/03/18 11:37:48;;;;;;;13.65;8.80;;;;;;;;;;5052004;28;20024;-54
2024/03/18 11:40:15;;;;;;;13.55;8.55;;;;;;;;;;5069999;28;20036;-55
2024/03/18 11:42:42;;;;;;;13.43;8.18;;;;;;;;;;5069429;28;20075;-53
2024/03/18 11:45:21;;;;;;;13.48;8.40;;;;;;;;;;5052187;28;20504;-51
2024/03/18 11:47:48;;;;;;;13.50;8.30;;;;;;;;;;5069918;28;20032;-54
2024/03/18 11:50:14;;;;;;;13.40;8.10;;;;;;;;;;5069826;28;20098;-54
2024/03/18 11:52:41;;;;;;;13.27;7.85;;;;;;;;;;5069128;28;20452;-54
2024/03/18 11:55:14;;;;;;;13.35;7.90;;;;;;;;;;5070005;28;20037;-51
2024/03/18 11:57:41;;;;;;;13.13;7.65;;;;;;;;;;5069810;28;20544;-55
2024/03/18 12:00:11;;;;;;;13.27;7.80;;;;;;;;;;5070043;28;20028;-53
2024/03/18 12:02:38;;;;;;;13.35;7.90;;;;;;;;;;5069365;28;20039;-54
2024/03/18 12:05:04;;;;;;;13.23;7.80;;;;;;;;;;5070081;28;20101;-52
2024/03/18 12:07:30;;;;;;;12.70;7.38;;;;;;;;;;5069474;28;20028;-56
2024/03/18 12:09:56;;;;;;;13.27;7.70;;;;;;;;;;5069415;28;20025;-53
2024/03/18 12:12:22;;;;;;;12.70;7.40;;;;;;;;;;5068924;28;20025;-51
2024/03/18 12:14:48;;;;;;;12.98;7.50;;;;;;;;;;5069555;28;20536;-52
2024/03/18 12:17:14;;;;;;;13.07;7.63;;;;;;;;;;5069405;28;20029;-56
2024/03/18 12:19:54;;;;;;;12.70;7.40;;;;;;;;;;5069835;28;20025;-53
2024/03/18 12:22:25;;;;;;;12.80;7.45;;;;;;;;;;5050215;28;20035;-57
2024/03/18 12:30:32;;;;;;;13.00;7.60;;;;;;;;;;5071398;28;20071;-48
2024/03/18 12:32:58;;;;;;;12.93;7.57;;;;;;;;;;5070541;28;20376;-48
2024/03/18 12:35:24;;;;;;;12.60;7.30;;;;;;;;;;5069871;28;20394;-52
2024/03/18 12:37:55;;;;;;;12.75;7.40;;;;;;;;;;5069878;28;20025;-50
2024/03/18 12:40:22;;;;;;;12.85;7.50;;;;;;;;;;5069574;28;20082;-49
2024/03/18 12:42:48;;;;;;;12.95;7.50;;;;;;;;;;5069058;28;20081;-52
2024/03/18 12:45:14;;;;;;;12.73;7.40;;;;;;;;;;5074041;28;20025;-54
2024/03/18 12:47:40;;;;;;;12.32;7.20;;;;;;;;;;5073699;28;20424;-53
2024/03/18 12:50:07;;;;;;;12.95;7.53;;;;;;;;;;5099091;22;20490;-57
2024/03/18 12:52:35;;;;;;;12.55;7.30;;;;;;;;;;5091331;28;20410;-53
2024/03/18 12:55:01;;;;;;;13.20;7.72;;;;;;;;;;5092295;28;20099;-57
2024/03/18 12:57:27;;;;;;;13.45;8.10;;;;;;;;;;5092272;28;20028;-56
2024/03/18 12:59:54;;;;;;;13.25;7.80;;;;;;;;;;5094135;28;20028;-56
2024/03/18 13:02:20;;;;;;;13.35;7.80;;;;;;;;;;5112354;28;20034;-52
2024/03/18 13:04:46;;;;;;;12.93;7.57;;;;;;;;;;5112590;28;20482;-55
2024/03/18 13:07:12;;;;;;;13.10;7.65;;;;;;;;;;5112280;28;20019;-54
2024/03/18 13:09:38;;;;;;;13.45;8.27;;;;;;;;;;5112124;28;20023;-54
2024/03/18 13:12:04;;;;;;;13.38;8.00;;;;;;;;;;5112005;28;20031;-57
2024/03/18 13:14:31;;;;;;;13.50;8.25;;;;;;;;;;5094553;28;20375;-57
2024/03/18 13:16:58;;;;;;;13.38;7.95;;;;;;;;;;5092091;28;20016;-53
2024/03/18 13:19:24;;;;;;;13.27;7.82;;;;;;;;;;5091894;28;20107;-57
2024/03/18 13:21:53;;;;;;;13.43;8.15;;;;;;;;;;5090708;28;20086;-57
2024/03/18 13:24:19;;;;;;;;;;;;;;;;;;5091667;28;20024;-53
2024/03/18 13:26:45;;;;;;;13.30;7.80;;;;;;;;;;5091754;28;19911;-56
2024/03/18 13:29:14;;;;;;;13.57;8.60;;;;;;;;;;5091747;28;20459;-51
2024/03/18 13:31:40;;;;;;;13.48;8.25;;;;;;;;;;5073643;28;20609;-52
2024/03/18 13:34:07;;;;;;;13.38;7.93;;;;;;;;;;5091580;28;20488;-54
2024/03/18 13:36:36;;;;;;;13.50;8.27;;;;;;;;;;5073549;28;20150;-55
2024/03/18 13:39:05;;;;;;;13.38;8.10;;;;;;;;;;5091966;28;20028;-55
2024/03/18 13:41:31;;;;;;;13.57;8.70;;;;;;;;;;5091568;28;20035;-53
2024/03/18 13:43:57;;;;;;;13.43;8.20;;;;;;;;;;5090590;28;20042;-57
2024/03/18 13:46:23;;;;;;;13.63;8.70;;;;;;;;;;5091237;28;20094;-54
2024/03/18 13:48:49;;;;;;;13.45;8.20;;;;;;;;;;5091019;28;20032;-55
2024/03/18 13:51:15;;;;;;;13.52;8.40;;;;;;;;;;5090549;28;20039;-58
2024/03/18 13:53:42;;;;;;;13.55;8.45;;;;;;;;;;5090753;28;20016;-55
2024/03/18 13:56:08;;;;;;;13.48;8.27;;;;;;;;;;5091166;28;20016;-53
2024/03/18 13:58:34;;;;;;;13.40;8.00;;;;;;;;;;5091277;28;20028;-57
2024/03/18 14:01:00;;;;;;;12.80;7.50;;;;;;;;;;5091219;28;20525;-52
2024/03/18 14:03:26;;;;;;;13.20;7.75;;;;;;;;;;5090650;28;20085;-57
2024/03/18 14:05:53;;;;;;;13.23;7.85;;;;;;;;;;5091431;28;20024;-54
2024/03/18 14:08:19;;;;;;;13.60;8.57;;;;;;;;;;5090916;28;20504;-51
2024/03/18 14:10:45;;;;;;;13.77;9.18;;;;;;;;;;5072754;28;20471;-54
2024/03/18 14:13:11;;;;;;;13.90;9.52;;;;;;;;;;5090136;28;20478;-57
2024/03/18 14:15:40;;;;;;;13.77;9.05;;;;;;;;;;5090648;28;20024;-54
2024/03/18 14:18:06;;;;;;;13.82;9.30;;;;;;;;;;5090619;28;20024;-55
2024/03/18 14:20:32;;;;;;;17.60;11.05;;;;;;;;;;5090079;28;20065;-55
2024/03/18 14:23:00;;;;;;;14.00;9.80;;;;;;;;;;5071776;28;20116;-55
2024/03/18 14:25:29;;;;;;;14.00;9.95;;;;;;;;;;5090234;28;20052;-58
2024/03/18 14:28:00;;;;;;;14.10;10.10;;;;;;;;;;5090456;28;20024;-52
2024/03/18 14:30:26;;;;;;;13.98;9.80;;;;;;;;;;5090267;28;20637;-57
2024/03/18 14:32:52;;;;;;;13.88;9.48;;;;;;;;;;5071256;28;20031;-51
2024/03/18 14:35:18;;;;;;;13.80;9.27;;;;;;;;;;5090284;28;20028;-53
2024/03/18 14:37:44;;;;;;;13.88;9.40;;;;;;;;;;5090289;28;20055;-55